Time;durP1;ratioP1;P1;durP2;ratioP2;P2;SDS_P1;SDS_P2;PMS_P1;PMS_P2;Temp;Humidity;BMP_temperature;BMP_pressure;BME280_temperature;BME280_humidity;BME280_pressure;Samples;Min_cycle;Max_cycle;Signal;HPM_P1;HPM_P2
2023/12/13 00:01:39;;;;;;;25.25;16.13;;;8.20;99.90;;;;;;5072524;28;20050;-70
2023/12/13 00:04:04;;;;;;;25.95;16.73;;;8.10;99.90;;;;;;5074118;28;20055;-70
2023/12/13 00:06:30;;;;;;;26.08;16.80;;;8.20;99.90;;;;;;5072749;28;20044;-71
2023/12/13 00:08:56;;;;;;;35.70;19.35;;;8.20;99.90;;;;;;5072839;28;20037;-71
2023/12/13 00:11:22;;;;;;;35.75;19.92;;;8.20;99.90;;;;;;5072406;28;20056;-71
2023/12/13 00:13:48;;;;;;;34.53;21.30;;;8.20;99.90;;;;;;5072640;28;20044;-71
2023/12/13 00:16:14;;;;;;;30.80;19.80;;;8.20;99.90;;;;;;5072373;28;20142;-71
2023/12/13 00:18:39;;;;;;;28.13;19.55;;;8.20;99.90;;;;;;5072316;28;20055;-71
2023/12/13 00:21:05;;;;;;;29.90;20.90;;;8.20;99.90;;;;;;5072163;28;20047;-71
2023/12/13 00:23:31;;;;;;;33.45;21.25;;;8.20;99.90;;;;;;5073417;28;20139;-70
2023/12/13 00:25:56;;;;;;;33.22;21.58;;;8.30;99.90;;;;;;5055600;28;20040;-70
2023/12/13 00:28:22;;;;;;;31.75;20.67;;;8.20;99.90;;;;;;5073689;28;20050;-70
2023/12/13 00:30:47;;;;;;;34.10;21.35;;;8.20;99.90;;;;;;5072058;28;20040;-70
2023/12/13 00:33:13;;;;;;;32.85;20.98;;;8.20;99.90;;;;;;5073636;28;20115;-70
2023/12/13 00:35:39;;;;;;;41.15;21.75;;;8.20;99.90;;;;;;5072085;28;20115;-70
2023/12/13 00:38:04;;;;;;;36.05;22.48;;;8.20;99.90;;;;;;5072341;28;20040;-70
2023/12/13 00:40:30;;;;;;;40.38;22.40;;;8.20;99.90;;;;;;5073489;28;20047;-70
2023/12/13 00:42:56;;;;;;;40.50;22.05;;;8.30;99.90;;;;;;5073462;28;20097;-70
2023/12/13 00:45:22;;;;;;;41.67;22.95;;;8.30;99.90;;;;;;5072214;28;20040;-70
2023/12/13 00:47:49;;;;;;;38.88;21.85;;;8.30;99.90;;;;;;5071960;28;20069;-70
2023/12/13 00:50:14;;;;;;;43.00;23.05;;;8.20;99.90;;;;;;5073377;28;20036;-70
2023/12/13 00:52:40;;;;;;;33.97;21.92;;;8.20;99.90;;;;;;5071907;28;20056;-70
2023/12/13 00:55:07;;;;;;;35.70;21.75;;;8.30;99.90;;;;;;5071893;28;20119;-70
2023/12/13 00:57:34;;;;;;;44.30;23.67;;;8.20;99.90;;;;;;5071833;28;20098;-70
2023/12/13 01:00:00;;;;;;;43.15;24.02;;;8.20;99.90;;;;;;5073321;28;20033;-70
2023/12/13 01:02:27;;;;;;;39.20;23.30;;;8.20;99.90;;;;;;5073268;28;20040;-70
2023/12/13 01:04:53;;;;;;;38.55;23.40;;;8.20;99.90;;;;;;5073338;28;20114;-70
2023/12/13 01:07:18;;;;;;;47.58;25.30;;;8.20;99.90;;;;;;5071774;28;20065;-70
2023/12/13 01:09:44;;;;;;;40.50;24.17;;;8.20;99.90;;;;;;5073001;28;20035;-70
2023/12/13 01:12:10;;;;;;;41.13;24.27;;;8.20;99.90;;;;;;5073154;28;20509;-70
2023/12/13 01:14:35;;;;;;;44.38;25.10;;;8.10;99.90;;;;;;5071725;28;20048;-70
2023/12/13 01:17:01;;;;;;;46.30;26.95;;;8.10;99.90;;;;;;5071675;28;20051;-70
2023/12/13 01:19:27;;;;;;;41.95;25.00;;;8.10;99.90;;;;;;5073181;28;20043;-70
2023/12/13 01:21:53;;;;;;;42.30;25.17;;;8.10;99.90;;;;;;5072842;28;20128;-70
2023/12/13 01:24:18;;;;;;;39.83;24.48;;;8.20;99.90;;;;;;5054952;28;20057;-70
2023/12/13 01:26:44;;;;;;;45.45;26.08;;;8.10;99.90;;;;;;5073078;28;20041;-70
2023/12/13 01:29:10;;;;;;;48.22;27.05;;;8.10;99.90;;;;;;5071598;28;20456;-70
2023/12/13 01:31:36;;;;;;;46.30;27.45;;;8.10;99.90;;;;;;5072988;28;20059;-70
2023/12/13 01:34:05;;;;;;;44.67;26.33;;;8.10;99.90;;;;;;5073024;28;20068;-70
2023/12/13 01:36:30;;;;;;;42.25;26.00;;;8.20;99.90;;;;;;5071748;28;20044;-70
2023/12/13 01:38:57;;;;;;;41.15;24.25;;;8.20;99.90;;;;;;5073042;28;20072;-70
2023/12/13 01:41:23;;;;;;;43.53;25.40;;;8.20;99.90;;;;;;5072786;28;20133;-70
2023/12/13 01:43:48;;;;;;;39.65;24.27;;;8.20;99.90;;;;;;5075555;28;20044;-70
2023/12/13 01:46:16;;;;;;;46.10;25.63;;;8.10;99.90;;;;;;5076794;28;20403;-70
2023/12/13 01:48:42;;;;;;;42.05;25.15;;;8.10;99.90;;;;;;5076426;28;20374;-70
2023/12/13 01:51:08;;;;;;;37.83;23.98;;;8.20;99.90;;;;;;5075377;28;20037;-70
2023/12/13 01:53:36;;;;;;;37.45;22.80;;;8.20;99.90;;;;;;5075125;28;20070;-70
2023/12/13 01:56:04;;;;;;;36.65;23.08;;;8.20;99.90;;;;;;5075092;28;20386;-70
2023/12/13 01:58:30;;;;;;;37.42;22.25;;;8.20;99.90;;;;;;5075253;28;20402;-70
2023/12/13 02:00:56;;;;;;;35.70;22.20;;;8.20;99.90;;;;;;5076423;28;20036;-70
2023/12/13 02:03:22;;;;;;;39.15;22.90;;;8.10;99.90;;;;;;5074839;28;20374;-70
2023/12/13 02:05:51;;;;;;;36.28;21.63;;;8.10;99.90;;;;;;5074907;28;20051;-70
2023/12/13 02:08:17;;;;;;;36.72;21.30;;;8.20;99.90;;;;;;5074839;28;20497;-70
2023/12/13 02:10:42;;;;;;;33.30;20.05;;;8.20;99.90;;;;;;5075930;28;20081;-70
2023/12/13 02:13:08;;;;;;;29.00;17.17;;;8.10;99.90;;;;;;5074771;28;20044;-70
2023/12/13 02:15:35;;;;;;;28.60;17.50;;;8.10;99.90;;;;;;5074689;28;20037;-70
2023/12/13 02:18:02;;;;;;;31.08;17.15;;;8.10;99.90;;;;;;5074713;28;20048;-70
2023/12/13 02:20:27;;;;;;;24.45;14.88;;;8.10;99.90;;;;;;5074547;28;20053;-70
2023/12/13 02:22:53;;;;;;;26.45;15.75;;;8.10;99.90;;;;;;5074343;28;20046;-70
2023/12/13 02:25:31;;;;;;;27.17;16.20;;;8.10;99.90;;;;;;5074541;28;20041;-70
2023/12/13 02:27:57;;;;;;;21.95;13.73;;;8.10;99.90;;;;;;5074518;28;20032;-70
2023/12/13 02:30:24;;;;;;;23.30;14.93;;;8.10;99.90;;;;;;5075879;28;20090;-70
2023/12/13 02:32:49;;;;;;;21.17;13.55;;;8.10;99.90;;;;;;5076229;28;20044;-70
2023/12/13 02:35:16;;;;;;;17.85;12.57;;;8.10;99.90;;;;;;5075892;28;20126;-70
2023/12/13 02:37:45;;;;;;;18.20;12.10;;;8.10;99.90;;;;;;5075840;28;20040;-70
2023/12/13 02:40:13;;;;;;;22.75;12.70;;;8.10;99.90;;;;;;5075767;28;20045;-70
2023/12/13 02:42:38;;;;;;;18.30;12.20;;;8.10;99.90;;;;;;5075668;28;20115;-70
2023/12/13 02:45:06;;;;;;;18.90;12.32;;;8.00;99.90;;;;;;5075677;28;20083;-70
2023/12/13 02:47:31;;;;;;;19.23;12.60;;;8.00;99.90;;;;;;5074165;28;20431;-70
2023/12/13 02:49:57;;;;;;;19.42;11.80;;;8.00;99.90;;;;;;5074048;28;20123;-70
2023/12/13 02:52:23;;;;;;;19.00;12.02;;;8.10;99.90;;;;;;5074376;28;20037;-70
2023/12/13 02:54:49;;;;;;;17.60;11.90;;;8.00;99.90;;;;;;5073950;28;20505;-70
2023/12/13 02:57:14;;;;;;;20.83;12.75;;;8.00;99.90;;;;;;5075493;28;20036;-70
2023/12/13 02:59:40;;;;;;;19.65;12.07;;;8.00;99.90;;;;;;5075077;28;20125;-70
2023/12/13 03:02:05;;;;;;;22.23;13.20;;;8.00;99.90;;;;;;5075256;28;20033;-70
2023/12/13 03:04:31;;;;;;;22.50;12.05;;;8.00;99.90;;;;;;5075345;28;20381;-70
2023/12/13 03:06:57;;;;;;;22.02;12.90;;;8.00;99.90;;;;;;5075304;28;20039;-70
2023/12/13 03:09:22;;;;;;;19.30;12.55;;;8.00;99.90;;;;;;5075197;28;20044;-70
2023/12/13 03:11:48;;;;;;;20.10;13.35;;;8.10;99.90;;;;;;5073837;28;20127;-70
2023/12/13 03:14:13;;;;;;;20.23;12.05;;;8.00;99.90;;;;;;5073846;28;20044;-70
2023/12/13 03:16:39;;;;;;;18.13;12.07;;;8.10;99.90;;;;;;5073586;28;20505;-70
2023/12/13 03:19:04;;;;;;;19.15;11.90;;;8.00;99.90;;;;;;5074999;28;20054;-70
2023/12/13 03:21:30;;;;;;;18.45;12.82;;;8.00;99.90;;;;;;5073263;28;20098;-70
2023/12/13 03:23:56;;;;;;;20.40;12.80;;;8.10;99.90;;;;;;5074536;28;20056;-70
2023/12/13 03:26:21;;;;;;;18.67;13.13;;;8.10;99.90;;;;;;5073654;28;20099;-70
2023/12/13 03:28:47;;;;;;;21.20;12.82;;;8.10;99.90;;;;;;5074885;28;20083;-70
2023/12/13 03:31:12;;;;;;;19.70;12.90;;;8.10;99.90;;;;;;5074759;28;20040;-70
2023/12/13 03:33:38;;;;;;;18.63;13.02;;;8.10;99.90;;;;;;5073303;28;20485;-70
2023/12/13 03:36:04;;;;;;;22.30;13.35;;;8.10;99.90;;;;;;5073229;28;20036;-70
2023/12/13 03:38:29;;;;;;;18.30;12.80;;;8.10;99.90;;;;;;5073145;28;20032;-70
2023/12/13 03:40:55;;;;;;;20.42;13.13;;;8.00;99.90;;;;;;5056634;28;20115;-70
2023/12/13 03:43:20;;;;;;;21.58;12.98;;;8.10;99.90;;;;;;5073018;28;20040;-70
2023/12/13 03:45:46;;;;;;;19.55;12.93;;;8.10;99.90;;;;;;5072956;28;20416;-70
2023/12/13 03:48:11;;;;;;;17.38;12.80;;;8.00;99.90;;;;;;5073199;28;20040;-70
2023/12/13 03:50:37;;;;;;;16.40;12.20;;;8.00;99.90;;;;;;5072842;28;20481;-70
2023/12/13 03:53:02;;;;;;;20.10;12.77;;;8.10;99.90;;;;;;5074374;28;20040;-70
2023/12/13 03:55:28;;;;;;;17.95;12.23;;;8.00;99.90;;;;;;5073845;28;20059;-70
2023/12/13 03:57:54;;;;;;;19.08;12.52;;;8.10;99.90;;;;;;5074310;28;20184;-70
2023/12/13 04:00:19;;;;;;;19.48;13.68;;;8.10;99.90;;;;;;5074148;28;20048;-70
2023/12/13 04:02:45;;;;;;;20.65;13.77;;;8.10;99.90;;;;;;5072605;28;20048;-70
2023/12/13 04:05:10;;;;;;;18.38;13.20;;;8.10;99.90;;;;;;5073785;28;20064;-70
2023/12/13 04:07:36;;;;;;;23.15;13.65;;;8.10;99.90;;;;;;5073776;28;20040;-70
2023/12/13 04:10:01;;;;;;;20.70;14.82;;;8.10;99.90;;;;;;5072511;28;20090;-70
2023/12/13 04:12:27;;;;;;;20.02;13.85;;;8.10;99.90;;;;;;5074008;28;20036;-70
2023/12/13 04:14:53;;;;;;;23.88;15.00;;;8.10;99.90;;;;;;5073972;28;20040;-70
2023/12/13 04:17:18;;;;;;;19.52;14.07;;;8.10;99.90;;;;;;5073577;28;20036;-70
2023/12/13 04:19:44;;;;;;;20.73;14.10;;;8.10;99.90;;;;;;5072367;28;20047;-70
2023/12/13 04:22:09;;;;;;;23.88;14.90;;;8.10;99.90;;;;;;5073515;28;20040;-70
2023/12/13 04:24:35;;;;;;;20.98;14.73;;;8.10;99.90;;;;;;5072600;28;20040;-70
2023/12/13 04:27:01;;;;;;;28.58;17.20;;;8.10;99.90;;;;;;5073451;28;20382;-70
2023/12/13 04:29:27;;;;;;;23.88;14.98;;;8.10;99.90;;;;;;5073756;28;20037;-70
2023/12/13 04:31:53;;;;;;;22.58;15.45;;;8.10;99.90;;;;;;5073623;28;20470;-70
2023/12/13 04:34:18;;;;;;;22.65;14.60;;;8.10;99.90;;;;;;5073693;28;20040;-70
2023/12/13 04:36:44;;;;;;;24.73;16.08;;;8.10;99.90;;;;;;5073669;28;20037;-70
2023/12/13 04:39:10;;;;;;;27.13;16.33;;;8.10;99.90;;;;;;5073602;28;20485;-70
2023/12/13 04:41:38;;;;;;;23.67;15.75;;;8.10;99.90;;;;;;5071925;28;20060;-70
2023/12/13 04:44:04;;;;;;;25.02;16.38;;;8.10;99.90;;;;;;5073199;28;20390;-70
2023/12/13 04:46:30;;;;;;;27.10;17.45;;;8.10;99.90;;;;;;5071955;28;20098;-70
2023/12/13 04:48:55;;;;;;;26.63;17.92;;;8.10;99.90;;;;;;5071976;28;20040;-70
2023/12/13 04:51:21;;;;;;;29.35;18.42;;;8.10;99.90;;;;;;5073424;28;20143;-70
2023/12/13 04:53:46;;;;;;;29.10;19.23;;;8.10;99.90;;;;;;5071909;28;20032;-70
2023/12/13 04:56:12;;;;;;;25.98;18.00;;;8.00;99.90;;;;;;5071860;28;20039;-70
2023/12/13 04:58:40;;;;;;;29.00;18.45;;;8.00;99.90;;;;;;5072215;28;20037;-70
2023/12/13 05:01:05;;;;;;;27.38;19.27;;;8.00;99.90;;;;;;5071779;28;20037;-70
2023/12/13 05:03:31;;;;;;;31.85;18.63;;;8.00;99.90;;;;;;5071724;28;20037;-70
2023/12/13 05:05:57;;;;;;;28.85;18.27;;;8.10;99.90;;;;;;5072995;28;20037;-70
2023/12/13 05:08:22;;;;;;;31.42;18.98;;;8.00;99.90;;;;;;5071752;28;20036;-70
2023/12/13 05:10:48;;;;;;;30.33;19.73;;;8.00;99.90;;;;;;5071691;28;20113;-70
2023/12/13 05:13:14;;;;;;;29.85;18.33;;;8.10;99.90;;;;;;5071988;28;20132;-70
2023/12/13 05:15:39;;;;;;;22.98;17.50;;;8.00;99.90;;;;;;5072291;28;20044;-70
2023/12/13 05:18:05;;;;;;;25.88;17.73;;;8.00;99.90;;;;;;5075875;28;20489;-70
2023/12/13 05:20:31;;;;;;;24.77;18.58;;;8.00;99.90;;;;;;5075982;28;20052;-70
2023/12/13 05:22:56;;;;;;;34.45;20.08;;;8.00;99.90;;;;;;5075640;28;20504;-70
2023/12/13 05:25:22;;;;;;;27.92;19.25;;;8.00;99.90;;;;;;5077250;28;20075;-70
2023/12/13 05:27:47;;;;;;;26.42;19.38;;;8.00;99.90;;;;;;5077156;28;20036;-70
2023/12/13 05:30:13;;;;;;;28.50;19.35;;;8.10;99.90;;;;;;5075858;28;20053;-70
2023/12/13 05:32:39;;;;;;;30.58;21.65;;;8.00;99.90;;;;;;5077088;28;20397;-70
2023/12/13 05:35:04;;;;;;;26.30;19.92;;;8.10;99.90;;;;;;5075815;28;20094;-70
2023/12/13 05:37:30;;;;;;;27.63;18.40;;;8.10;99.90;;;;;;5077032;28;20394;-70
2023/12/13 05:39:56;;;;;;;26.83;19.67;;;8.00;99.90;;;;;;5076874;28;20040;-70
2023/12/13 05:42:21;;;;;;;30.58;20.13;;;8.10;99.90;;;;;;5076812;28;20450;-70
2023/12/13 05:44:47;;;;;;;30.55;19.50;;;8.00;99.90;;;;;;5075601;28;20032;-70
2023/12/13 05:47:13;;;;;;;26.90;19.45;;;8.00;99.90;;;;;;5075538;28;20516;-70
2023/12/13 05:49:39;;;;;;;38.15;22.35;;;8.00;99.90;;;;;;5075198;28;20123;-71
2023/12/13 05:52:06;;;;;;;31.65;20.30;;;8.10;99.90;;;;;;5076536;28;20116;-70
2023/12/13 05:54:32;;;;;;;29.23;20.02;;;8.10;99.90;;;;;;5076314;28;20489;-70
2023/12/13 05:56:59;;;;;;;31.73;21.13;;;8.00;99.90;;;;;;5075381;28;20032;-70
2023/12/13 05:59:24;;;;;;;28.55;20.83;;;8.00;99.90;;;;;;5076492;28;20041;-70
2023/12/13 06:01:50;;;;;;;30.73;20.60;;;8.00;99.90;;;;;;5076354;28;20124;-70
2023/12/13 06:04:15;;;;;;;31.80;20.67;;;8.00;99.90;;;;;;5076426;28;20399;-70
2023/12/13 06:06:45;;;;;;;30.63;20.33;;;8.00;99.90;;;;;;5074901;28;20041;-70
2023/12/13 06:09:10;;;;;;;27.75;19.75;;;8.00;99.90;;;;;;5074877;28;20033;-70
2023/12/13 06:11:36;;;;;;;26.75;20.48;;;8.00;99.90;;;;;;5074720;28;20063;-70
2023/12/13 06:14:02;;;;;;;31.25;20.63;;;8.00;99.90;;;;;;5076283;28;20039;-70
2023/12/13 06:16:28;;;;;;;40.83;23.85;;;8.00;99.90;;;;;;5058013;28;20409;-70
2023/12/13 06:18:53;;;;;;;31.42;21.13;;;8.00;99.90;;;;;;5074673;28;20055;-70
2023/12/13 06:21:19;;;;;;;28.17;19.27;;;8.00;99.90;;;;;;5074764;28;20043;-70
2023/12/13 06:23:45;;;;;;;30.20;20.40;;;8.00;99.90;;;;;;5075732;28;20051;-70
2023/12/13 06:26:10;;;;;;;30.30;20.63;;;8.00;99.90;;;;;;5076018;28;20060;-70
2023/12/13 06:28:36;;;;;;;28.02;20.08;;;8.00;99.90;;;;;;5075684;28;20481;-70
2023/12/13 06:31:01;;;;;;;30.80;20.55;;;8.10;99.90;;;;;;5074933;28;20032;-70
2023/12/13 06:33:27;;;;;;;28.02;19.88;;;8.00;99.90;;;;;;5075951;28;20043;-70
2023/12/13 06:35:53;;;;;;;30.10;20.67;;;8.00;99.90;;;;;;5074310;28;20513;-70
2023/12/13 06:38:19;;;;;;;31.77;20.90;;;8.00;99.90;;;;;;5075814;28;20496;-70
2023/12/13 06:40:44;;;;;;;30.75;20.60;;;8.10;99.90;;;;;;5074142;28;20046;-70
2023/12/13 06:43:10;;;;;;;34.30;21.42;;;8.00;99.90;;;;;;5074130;28;20055;-70
2023/12/13 06:45:36;;;;;;;28.30;19.95;;;8.10;99.90;;;;;;5074437;28;20036;-70
2023/12/13 06:48:01;;;;;;;30.33;21.02;;;8.00;99.90;;;;;;5074140;28;20444;-70
2023/12/13 06:50:27;;;;;;;23.65;19.25;;;8.00;99.90;;;;;;5075546;28;20033;-70
2023/12/13 06:52:54;;;;;;;24.02;18.58;;;8.00;99.90;;;;;;5075777;28;20139;-70
2023/12/13 06:55:21;;;;;;;33.58;22.58;;;8.10;99.90;;;;;;5074059;28;20098;-70
2023/12/13 06:57:47;;;;;;;28.83;21.30;;;8.10;99.90;;;;;;5073989;28;20083;-70
2023/12/13 07:00:13;;;;;;;36.70;23.30;;;8.00;99.90;;;;;;5073860;28;20040;-70
2023/12/13 07:02:39;;;;;;;31.33;22.17;;;8.10;99.90;;;;;;5075718;28;20041;-70
2023/12/13 07:05:07;;;;;;;29.48;20.00;;;8.10;99.90;;;;;;5073833;28;20405;-70
2023/12/13 07:07:33;;;;;;;32.60;21.05;;;8.10;99.90;;;;;;5073823;28;20036;-70
2023/12/13 07:09:59;;;;;;;30.42;21.00;;;8.10;99.90;;;;;;5075174;28;20520;-70
2023/12/13 07:12:28;;;;;;;42.95;23.45;;;8.10;99.90;;;;;;5073709;28;20088;-70
2023/12/13 07:14:57;;;;;;;32.75;22.00;;;8.10;99.90;;;;;;5073654;28;20045;-70
2023/12/13 07:17:23;;;;;;;28.83;21.23;;;8.10;99.90;;;;;;5073644;28;20079;-70
2023/12/13 07:19:50;;;;;;;26.92;18.95;;;8.10;99.90;;;;;;5073626;28;20076;-70
2023/12/13 07:22:15;;;;;;;26.15;20.05;;;8.10;99.90;;;;;;5074531;28;20377;-70
2023/12/13 07:24:41;;;;;;;28.33;19.42;;;8.10;99.90;;;;;;5074750;28;20542;-70
2023/12/13 07:27:10;;;;;;;27.17;19.88;;;8.20;99.90;;;;;;5074900;28;20119;-70
2023/12/13 07:29:35;;;;;;;34.05;21.65;;;8.10;99.90;;;;;;5073377;28;20527;-70
2023/12/13 07:32:01;;;;;;;30.20;20.63;;;8.20;99.90;;;;;;5073261;28;20051;-69
2023/12/13 07:34:26;;;;;;;29.63;20.05;;;8.20;99.90;;;;;;5073543;28;20043;-69
2023/12/13 07:36:53;;;;;;;29.83;19.08;;;8.20;99.90;;;;;;5073179;28;20492;-69
2023/12/13 07:39:19;;;;;;;26.77;19.73;;;8.20;99.90;;;;;;5072411;28;20082;-69
2023/12/13 07:41:44;;;;;;;32.00;21.60;;;8.20;99.90;;;;;;5072993;28;20044;-69
2023/12/13 07:44:10;;;;;;;37.35;21.85;;;8.10;99.90;;;;;;5073280;28;20091;-69
2023/12/13 07:46:38;;;;;;;29.05;20.30;;;8.20;99.90;;;;;;5074267;28;20036;-69
2023/12/13 07:49:04;;;;;;;36.40;22.42;;;8.20;99.90;;;;;;5073084;28;20041;-69
2023/12/13 07:51:31;;;;;;;32.13;21.27;;;8.20;99.90;;;;;;5072840;28;20043;-69
2023/12/13 07:53:58;;;;;;;31.27;21.17;;;8.20;99.90;;;;;;5072874;28;20047;-69
2023/12/13 07:56:25;;;;;;;39.33;23.33;;;8.20;99.90;;;;;;5073626;28;20098;-69
2023/12/13 07:58:50;;;;;;;30.98;21.45;;;8.20;99.90;;;;;;5072785;28;20055;-69
2023/12/13 08:01:16;;;;;;;35.95;20.85;;;8.20;99.90;;;;;;5072572;28;20033;-69
2023/12/13 08:03:43;;;;;;;32.17;19.60;;;8.20;99.90;;;;;;5074246;28;20075;-69
2023/12/13 08:06:13;;;;;;;28.00;19.23;;;8.20;99.90;;;;;;5074179;28;20086;-69
2023/12/13 08:08:39;;;;;;;37.33;21.20;;;8.20;99.90;;;;;;5072605;28;20044;-69
2023/12/13 08:11:06;;;;;;;34.17;20.90;;;8.20;99.90;;;;;;5072465;28;20528;-69
2023/12/13 08:13:34;;;;;;;29.63;19.45;;;8.20;99.90;;;;;;5072776;28;20053;-69
2023/12/13 08:16:00;;;;;;;26.92;20.30;;;8.20;99.90;;;;;;5073996;28;20064;-69
2023/12/13 08:18:26;;;;;;;27.70;19.73;;;8.20;99.90;;;;;;5073602;28;20076;-69
2023/12/13 08:20:52;;;;;;;36.33;22.73;;;8.20;99.90;;;;;;5072419;28;20047;-69
2023/12/13 08:23:17;;;;;;;30.23;21.15;;;8.30;99.90;;;;;;5072488;28;20044;-69
2023/12/13 08:25:43;;;;;;;36.45;21.60;;;8.30;99.90;;;;;;5072480;28;20501;-69
2023/12/13 08:28:09;;;;;;;36.28;21.90;;;8.20;99.90;;;;;;5073953;28;20094;-69
2023/12/13 08:30:35;;;;;;;40.13;23.25;;;8.30;99.90;;;;;;5072325;28;20041;-69
2023/12/13 08:33:02;;;;;;;34.78;21.20;;;8.30;99.90;;;;;;5072855;28;20044;-69
2023/12/13 08:35:27;;;;;;;39.72;22.27;;;8.30;99.90;;;;;;5073685;28;20040;-69
2023/12/13 08:37:54;;;;;;;34.15;21.52;;;8.30;99.90;;;;;;5073622;28;20040;-69
2023/12/13 08:40:20;;;;;;;37.53;23.50;;;8.30;99.90;;;;;;5072033;28;20043;-69
2023/12/13 08:42:46;;;;;;;31.20;21.83;;;8.30;99.90;;;;;;5073540;28;20051;-70
2023/12/13 08:45:13;;;;;;;38.63;23.13;;;8.30;99.90;;;;;;5073570;28;20048;-69
2023/12/13 08:47:39;;;;;;;46.13;24.38;;;8.30;99.90;;;;;;5072018;28;20036;-69
2023/12/13 08:50:05;;;;;;;40.05;22.60;;;8.30;99.90;;;;;;5073370;28;20040;-69
2023/12/13 08:52:31;;;;;;;35.85;21.25;;;8.30;99.90;;;;;;5072163;28;20044;-69
2023/12/13 08:54:57;;;;;;;41.63;22.55;;;8.40;99.90;;;;;;5073455;28;20043;-69
2023/12/13 08:57:22;;;;;;;37.85;21.88;;;8.40;99.90;;;;;;5071868;28;20043;-69
2023/12/13 08:59:48;;;;;;;35.78;21.30;;;8.40;99.90;;;;;;5073926;28;20044;-68
2023/12/13 09:02:13;;;;;;;35.80;21.20;;;8.40;99.90;;;;;;5073048;28;20525;-69
2023/12/13 09:04:39;;;;;;;42.95;24.20;;;8.40;99.90;;;;;;5071885;28;20041;-68
2023/12/13 09:07:06;;;;;;;32.25;19.90;;;8.40;99.90;;;;;;5073328;28;20116;-68
2023/12/13 09:09:31;;;;;;;36.03;22.58;;;8.40;99.90;;;;;;5071784;28;20044;-68
2023/12/13 09:12:00;;;;;;;35.38;22.05;;;8.40;99.90;;;;;;5073191;28;20037;-68
2023/12/13 09:14:27;;;;;;;32.42;20.20;;;8.50;99.90;;;;;;5073218;28;20036;-68
2023/12/13 09:16:53;;;;;;;35.50;22.27;;;8.50;99.90;;;;;;5073248;28;20086;-68
2023/12/13 09:19:19;;;;;;;40.17;22.15;;;8.50;99.90;;;;;;5073241;28;20120;-68
2023/12/13 09:21:44;;;;;;;39.47;22.95;;;8.50;99.90;;;;;;5071660;28;20123;-68
2023/12/13 09:24:10;;;;;;;37.17;21.92;;;8.50;99.90;;;;;;5071899;28;20083;-68
2023/12/13 09:26:37;;;;;;;36.97;20.88;;;8.50;99.90;;;;;;5071630;28;20041;-68
2023/12/13 09:29:03;;;;;;;31.80;20.13;;;8.50;99.90;;;;;;5071653;28;20045;-68
2023/12/13 09:31:29;;;;;;;33.13;20.23;;;8.50;99.90;;;;;;5073001;28;20037;-69
2023/12/13 09:33:54;;;;;;;35.03;22.08;;;8.50;99.90;;;;;;5071574;28;20044;-69
2023/12/13 09:36:21;;;;;;;38.90;20.88;;;8.50;99.90;;;;;;5072727;28;20033;-68
2023/12/13 09:38:47;;;;;;;34.17;20.45;;;8.60;99.90;;;;;;5071485;28;20044;-68
2023/12/13 09:41:41;;;;;;;46.05;22.45;;;8.60;99.90;;;;;;5071889;28;20120;-68
2023/12/13 09:44:08;;;;;;;40.50;23.08;;;8.60;99.90;;;;;;5071809;28;20047;-68
2023/12/13 09:46:37;;;;;;;31.30;20.55;;;8.60;99.90;;;;;;5072930;28;20036;-68
2023/12/13 09:49:03;;;;;;;35.40;20.50;;;8.60;99.90;;;;;;5072593;28;20516;-68
2023/12/13 09:51:30;;;;;;;35.08;20.67;;;8.70;99.90;;;;;;5054848;28;20089;-68
2023/12/13 09:53:58;;;;;;;35.03;19.85;;;8.70;99.90;;;;;;5071359;28;20078;-68
2023/12/13 09:56:24;;;;;;;38.28;21.55;;;8.70;99.90;;;;;;5071402;28;20044;-68
2023/12/13 09:58:50;;;;;;;31.00;19.58;;;8.70;99.90;;;;;;5072834;28;20035;-68
2023/12/13 10:01:17;;;;;;;32.17;21.02;;;8.70;99.90;;;;;;5071518;28;20045;-68
2023/12/13 10:03:43;;;;;;;31.17;20.50;;;8.80;99.90;;;;;;5074628;28;20098;-68
2023/12/13 10:06:09;;;;;;;38.40;21.83;;;8.80;99.90;;;;;;5074912;28;20041;-68
2023/12/13 10:08:35;;;;;;;34.63;21.20;;;8.80;99.90;;;;;;5074896;28;20041;-68
2023/12/13 10:11:05;;;;;;;26.60;19.15;;;8.80;99.90;;;;;;5075971;28;20397;-68
2023/12/13 10:13:31;;;;;;;38.80;21.38;;;8.80;99.90;;;;;;5074839;28;20048;-69
2023/12/13 10:16:09;;;;;;;31.77;20.27;;;8.80;99.90;;;;;;5074692;28;20082;-69
2023/12/13 10:18:35;;;;;;;36.75;19.55;;;8.80;99.90;;;;;;5074748;28;20080;-69
2023/12/13 10:21:00;;;;;;;31.42;21.35;;;8.80;99.90;;;;;;5058002;28;20091;-69
2023/12/13 10:23:27;;;;;;;28.08;18.20;;;8.80;99.90;;;;;;5074410;28;20049;-69
2023/12/13 10:25:53;;;;;;;31.50;20.58;;;8.80;99.90;;;;;;5074561;28;20032;-69
2023/12/13 10:28:20;;;;;;;33.72;21.25;;;8.90;99.90;;;;;;5074535;28;20040;-69
2023/12/13 10:30:49;;;;;;;28.27;18.95;;;8.80;99.90;;;;;;5075952;28;20040;-69
2023/12/13 10:33:15;;;;;;;29.35;20.05;;;8.90;99.90;;;;;;5074688;28;20036;-69
2023/12/13 10:35:41;;;;;;;39.25;21.73;;;8.90;99.90;;;;;;5075880;28;20421;-69
2023/12/13 10:38:10;;;;;;;37.85;21.02;;;8.90;99.90;;;;;;5074650;28;20033;-69
2023/12/13 10:40:35;;;;;;;31.13;21.02;;;8.90;99.90;;;;;;5074230;28;20115;-69
2023/12/13 10:43:04;;;;;;;36.00;21.50;;;8.90;99.90;;;;;;5074204;28;20178;-69
2023/12/13 10:45:30;;;;;;;32.33;19.58;;;8.90;99.90;;;;;;5074199;28;20085;-69
2023/12/13 10:48:00;;;;;;;28.95;18.90;;;8.90;99.90;;;;;;5074153;28;20040;-68
2023/12/13 10:50:27;;;;;;;48.20;23.70;;;8.90;99.90;;;;;;5075626;28;20040;-69
2023/12/13 10:52:55;;;;;;;32.00;19.63;;;8.90;99.90;;;;;;5075286;28;20527;-69
2023/12/13 10:55:22;;;;;;;35.13;20.60;;;9.00;99.90;;;;;;5075281;28;20519;-69
2023/12/13 10:57:48;;;;;;;30.77;19.15;;;8.90;99.90;;;;;;5074242;28;20067;-69
2023/12/13 11:00:15;;;;;;;47.30;23.70;;;8.90;99.90;;;;;;5073957;28;20493;-68
2023/12/13 11:02:55;;;;;;;39.92;23.27;;;8.90;99.90;;;;;;5073829;28;20047;-68
2023/12/13 11:05:21;;;;;;;32.97;19.23;;;8.90;99.90;;;;;;5075837;28;20040;-68
2023/12/13 11:07:47;;;;;;;35.63;21.05;;;8.90;99.90;;;;;;5073770;28;20037;-68
2023/12/13 11:10:14;;;;;;;35.58;20.38;;;9.00;99.90;;;;;;5073730;28;20044;-69
2023/12/13 11:12:50;;;;;;;37.03;20.15;;;8.90;99.90;;;;;;5073856;28;20098;-69
2023/12/13 11:15:17;;;;;;;33.95;20.63;;;9.00;99.90;;;;;;5072868;28;20044;-69
2023/12/13 11:17:50;;;;;;;31.23;19.42;;;9.00;99.90;;;;;;5073596;28;20459;-69
2023/12/13 11:20:16;;;;;;;32.58;20.00;;;9.00;99.90;;;;;;5073775;28;20052;-69
2023/12/13 11:22:45;;;;;;;38.83;20.90;;;9.00;99.90;;;;;;5073351;28;20467;-69
2023/12/13 11:25:11;;;;;;;37.90;20.98;;;9.00;99.90;;;;;;5075049;28;20116;-69
2023/12/13 11:27:46;;;;;;;36.92;20.58;;;9.00;99.90;;;;;;5073744;28;20048;-69
2023/12/13 11:30:13;;;;;;;36.17;21.02;;;8.90;99.90;;;;;;5073622;28;20492;-69
2023/12/13 11:32:43;;;;;;;39.38;23.17;;;9.00;99.90;;;;;;5073354;28;20128;-69
2023/12/13 11:35:20;;;;;;;43.65;23.70;;;9.00;99.90;;;;;;5073261;28;20453;-69
2023/12/13 11:37:53;;;;;;;30.75;19.25;;;9.00;99.90;;;;;;5074929;28;20115;-69
2023/12/13 11:40:20;;;;;;;35.92;21.85;;;8.90;99.90;;;;;;5073107;28;20417;-70
2023/12/13 11:42:46;;;;;;;33.33;20.35;;;8.90;99.90;;;;;;5074545;28;20078;-69
2023/12/13 11:45:12;;;;;;;33.65;20.98;;;8.90;99.90;;;;;;5073337;28;20101;-69
2023/12/13 11:47:39;;;;;;;37.20;21.65;;;8.90;99.90;;;;;;5074184;28;20548;-69
2023/12/13 11:50:05;;;;;;;41.67;25.20;;;8.90;99.90;;;;;;5074404;28;20041;-69
2023/12/13 11:52:31;;;;;;;40.33;24.23;;;8.90;99.90;;;;;;5074460;28;20040;-69
2023/12/13 11:55:00;;;;;;;42.35;23.85;;;9.00;99.90;;;;;;5072937;28;20040;-69
2023/12/13 11:57:25;;;;;;;38.65;22.02;;;9.00;99.90;;;;;;5056119;28;20036;-69
2023/12/13 11:59:51;;;;;;;32.47;20.05;;;9.00;99.90;;;;;;5056201;28;20040;-70
2023/12/13 12:02:17;;;;;;;32.05;21.40;;;9.00;99.90;;;;;;5072739;28;20044;-69
2023/12/13 12:04:44;;;;;;;44.05;23.05;;;9.00;99.90;;;;;;5073879;28;20485;-69
2023/12/13 12:07:17;;;;;;;34.75;20.75;;;9.00;99.90;;;;;;5072683;28;20068;-69
2023/12/13 12:09:50;;;;;;;34.97;21.83;;;9.00;99.90;;;;;;5072990;28;20098;-69
2023/12/13 12:12:16;;;;;;;;;;;9.00;99.90;;;;;;5073203;28;20048;-69
2023/12/13 12:14:45;;;;;;;31.67;19.40;;;9.00;99.90;;;;;;5074078;28;19917;-69
2023/12/13 12:17:11;;;;;;;35.88;20.65;;;9.00;99.90;;;;;;5072431;28;20051;-69
2023/12/13 12:19:38;;;;;;;31.55;20.30;;;9.00;99.90;;;;;;5073646;28;20493;-69
2023/12/13 12:22:03;;;;;;;35.47;21.55;;;9.10;99.90;;;;;;5072279;28;20060;-69
2023/12/13 12:24:29;;;;;;;35.00;19.58;;;9.10;99.90;;;;;;5072048;28;20413;-69
2023/12/13 12:27:10;;;;;;;34.25;21.08;;;9.10;99.90;;;;;;5073801;28;20067;-69
2023/12/13 12:29:35;;;;;;;39.15;20.92;;;9.10;99.90;;;;;;5072431;28;20041;-69
2023/12/13 12:32:02;;;;;;;31.45;19.95;;;9.10;99.90;;;;;;5073591;28;20046;-69
2023/12/13 12:34:27;;;;;;;31.95;20.27;;;9.20;99.90;;;;;;5072445;28;20056;-69